createdAt,value
2023-01-22T00:02:23.021Z,103241.88
2023-01-22T00:04:49.439Z,103237.47
2023-01-22T00:07:16.356Z,103250.69
2023-01-22T00:09:42.633Z,103246.41
2023-01-22T00:12:09.547Z,103242.13
2023-01-22T00:14:36.073Z,103243.94
2023-01-22T00:17:02.370Z,103244.97
2023-01-22T00:19:28.612Z,103237.16
2023-01-22T00:21:54.954Z,103236.50
2023-01-22T00:24:22.211Z,103242.75
2023-01-22T00:26:48.483Z,103236.63
2023-01-22T00:29:14.791Z,103229.09
2023-01-22T00:31:41.104Z,103229.88
2023-01-22T00:34:08.299Z,103235.09
2023-01-22T00:36:34.715Z,103235.63
2023-01-22T00:39:01.699Z,103231.22
2023-01-22T00:41:28.087Z,103225.09
2023-01-22T00:43:54.388Z,103226.78
2023-01-22T00:46:20.690Z,103226.00
2023-01-22T00:48:49.398Z,103223.63
2023-01-22T00:51:16.083Z,103232.22
2023-01-22T00:53:43.694Z,103221.69
2023-01-22T00:56:10.552Z,103221.97
2023-01-22T00:58:36.856Z,103215.06
2023-01-22T01:01:04.121Z,103221.31
2023-01-22T01:03:31.505Z,103218.44
2023-01-22T01:06:05.621Z,103212.34
2023-01-22T01:08:33.866Z,103211.44
2023-01-22T01:11:01.602Z,103208.97
2023-01-22T01:13:28.353Z,103222.84
2023-01-22T01:16:02.078Z,103215.97
2023-01-22T01:18:29.137Z,103224.38
2023-01-22T01:20:56.191Z,103222.56
2023-01-22T01:23:22.825Z,103220.50
2023-01-22T01:25:49.106Z,103221.16
2023-01-22T01:28:15.612Z,103208.19
2023-01-22T01:30:42.048Z,103208.97
2023-01-22T01:33:08.348Z,103210.66
2023-01-22T01:35:34.626Z,103208.84
2023-01-22T01:38:00.883Z,103200.78
2023-01-22T01:40:27.203Z,103204.13
2023-01-22T01:42:53.515Z,103206.50
2023-01-22T01:45:20.979Z,103198.56
2023-01-22T01:47:53.186Z,103198.56
2023-01-22T01:50:20.726Z,103201.84
2023-01-22T01:52:47.306Z,103213.13
2023-01-22T01:55:14.973Z,103205.09
2023-01-22T01:57:41.524Z,103216.63
2023-01-22T02:00:10.547Z,103213.25
2023-01-22T02:02:36.893Z,103215.50
2023-01-22T02:05:04.440Z,103213.41
2023-01-22T02:07:30.702Z,103223.28
2023-01-22T02:09:57.061Z,103218.75
2023-01-22T02:12:23.403Z,103229.38
2023-01-22T02:14:49.911Z,103222.75
2023-01-22T02:17:19.499Z,103222.75
2023-01-22T02:19:45.847Z,103226.00
2023-01-22T02:22:22.841Z,103211.03
2023-01-22T02:24:49.766Z,103207.69
2023-01-22T02:27:16.031Z,103204.84
2023-01-22T02:29:42.344Z,103205.50
2023-01-22T02:32:08.741Z,103215.22
2023-01-22T02:34:34.997Z,103209.78
2023-01-22T02:37:01.271Z,103211.47
2023-01-22T02:39:27.627Z,103209.09
2023-01-22T02:41:54.163Z,103208.88
2023-01-22T02:44:20.428Z,103216.91
2023-01-22T02:46:46.687Z,103216.91
2023-01-22T02:49:13.009Z,103214.59
2023-01-22T02:51:39.368Z,103213.94
2023-01-22T02:54:05.691Z,103208.88
2023-01-22T02:56:33.231Z,103212.50
2023-01-22T02:59:00.356Z,103220.41
2023-01-22T03:01:26.619Z,103217.16
2023-01-22T03:03:54.839Z,103222.88
2023-01-22T03:06:22.401Z,103221.09
2023-01-22T03:08:49.613Z,103211.47
2023-01-22T03:11:15.974Z,103218.34
2023-01-22T03:14:01.051Z,103223.81
2023-01-22T03:16:45.843Z,103230.16
2023-01-22T03:19:30.630Z,103228.34
2023-01-22T03:21:56.921Z,103225.44
2023-01-22T03:24:23.280Z,103217.44
2023-01-22T03:26:49.566Z,103221.97
2023-01-22T03:29:16.029Z,103228.84
2023-01-22T03:31:42.330Z,103222.63
2023-01-22T03:34:08.688Z,103220.25
2023-01-22T03:36:35.001Z,103224.31
2023-01-22T03:39:01.287Z,103222.75
2023-01-22T03:41:27.610Z,103212.44
2023-01-22T03:43:53.899Z,103214.44
2023-01-22T03:46:20.476Z,103229.22
2023-01-22T03:48:50.530Z,103230.03
2023-01-22T03:51:17.362Z,103229.22
2023-01-22T03:53:44.449Z,103237.69
2023-01-22T03:56:11.537Z,103237.91
2023-01-22T03:58:38.160Z,103240.78
2023-01-22T04:01:05.944Z,103234.69
2023-01-22T04:03:32.328Z,103234.78
2023-01-22T04:06:01.801Z,103229.72
2023-01-22T04:08:29.055Z,103242.03
2023-01-22T04:10:55.685Z,103235.16
2023-01-22T04:13:22.397Z,103224.13
2023-01-22T04:15:48.669Z,103236.09
2023-01-22T04:18:14.985Z,103241.66
2023-01-22T04:20:41.268Z,103222.44
2023-01-22T04:23:07.640Z,103227.50
2023-01-22T04:25:34.064Z,103224.25
2023-01-22T04:28:00.391Z,103219.66
2023-01-22T04:30:26.779Z,103218.91
2023-01-22T04:32:53.095Z,103217.63
2023-01-22T04:35:19.523Z,103209.44
2023-01-22T04:37:45.795Z,103205.91
2023-01-22T04:40:12.174Z,103202.53
2023-01-22T04:42:38.418Z,103197.22
2023-01-22T04:45:04.891Z,103196.66
2023-01-22T04:47:31.192Z,103191.25
2023-01-22T04:49:57.467Z,103197.31
2023-01-22T04:52:23.758Z,103192.25
2023-01-22T04:54:51.855Z,103191.47
2023-01-22T04:57:18.105Z,103179.25
2023-01-22T04:59:44.474Z,103182.66
2023-01-22T05:02:10.756Z,103178.59
2023-01-22T05:04:37.034Z,103180.53
2023-01-22T05:07:03.294Z,103170.91
2023-01-22T05:09:29.567Z,103171.84
2023-01-22T05:11:55.828Z,103177.03
2023-01-22T05:14:22.153Z,103170.03
2023-01-22T05:16:49.228Z,103169.09
2023-01-22T05:19:15.920Z,103171.03
2023-01-22T05:21:42.196Z,103178.31
2023-01-22T05:24:09.125Z,103176.63
2023-01-22T05:26:35.398Z,103177.50
2023-01-22T05:29:01.741Z,103177.38
2023-01-22T05:31:28.049Z,103180.78
2023-01-22T05:33:54.349Z,103178.97
2023-01-22T05:36:20.661Z,103175.72
2023-01-22T05:38:46.984Z,103173.09
2023-01-22T05:41:13.249Z,103182.03
2023-01-22T05:43:39.668Z,103178.56
2023-01-22T05:46:06.271Z,103175.56
2023-01-22T05:48:33.028Z,103185.03
2023-01-22T05:51:06.751Z,103183.47
2023-01-22T05:53:33.563Z,103181.63
2023-01-22T05:56:03.072Z,103181.63
2023-01-22T05:58:29.869Z,103185.94
2023-01-22T06:00:56.678Z,103185.63
2023-01-22T06:03:23.136Z,103186.28
2023-01-22T06:06:02.764Z,103194.88
2023-01-22T06:08:29.503Z,103195.16
2023-01-22T06:11:02.605Z,103194.94
2023-01-22T06:13:28.921Z,103194.59
2023-01-22T06:15:55.364Z,103192.75
2023-01-22T06:18:22.295Z,103195.75
2023-01-22T06:20:48.620Z,103214.47
2023-01-22T06:23:15.071Z,103200.41
2023-01-22T06:25:41.385Z,103202.47
2023-01-22T06:28:07.684Z,103206.66
2023-01-22T06:30:33.962Z,103202.34
2023-01-22T06:33:00.227Z,103189.47
2023-01-22T06:35:26.515Z,103200.78
2023-01-22T06:37:52.821Z,103204.94
2023-01-22T06:40:19.519Z,103205.19
2023-01-22T06:42:46.003Z,103203.50
2023-01-22T06:45:12.382Z,103209.84
2023-01-22T06:47:42.868Z,103193.31
2023-01-22T06:50:09.532Z,103204.91
2023-01-22T06:52:35.986Z,103199.69
2023-01-22T06:55:02.288Z,103203.19
2023-01-22T06:57:28.636Z,103215.66
2023-01-22T06:59:54.911Z,103206.97
2023-01-22T07:02:21.363Z,103215.66
2023-01-22T07:04:47.777Z,103221.66
2023-01-22T07:07:14.157Z,103226.06
2023-01-22T07:09:40.612Z,103220.84
2023-01-22T07:12:06.880Z,103226.31
2023-01-22T07:14:37.556Z,103226.19
2023-01-22T07:17:04.184Z,103221.34
2023-01-22T07:19:30.449Z,103222.13
2023-01-22T07:21:56.759Z,103223.03
2023-01-22T07:24:23.139Z,103226.69
2023-01-22T07:26:49.458Z,103230.28
2023-01-22T07:29:30.854Z,103237.31
2023-01-22T07:31:57.235Z,103228.75
2023-01-22T07:34:23.580Z,103225.34
2023-01-22T07:36:49.928Z,103225.34
2023-01-22T07:39:16.202Z,103236.63
2023-01-22T07:41:42.465Z,103236.75
2023-01-22T07:44:08.823Z,103236.63
2023-01-22T07:46:35.341Z,103255.78
2023-01-22T07:49:01.621Z,103253.31
2023-01-22T07:51:27.992Z,103250.81
2023-01-22T07:53:54.840Z,103254.31
2023-01-22T07:56:21.280Z,103254.31
2023-01-22T07:58:47.563Z,103244.81
2023-01-22T08:01:14.111Z,103261.34
2023-01-22T08:03:40.535Z,103260.56
2023-01-22T08:06:08.128Z,103259.88
2023-01-22T08:08:34.409Z,103270.31
2023-01-22T08:11:00.770Z,103273.81
2023-01-22T08:13:27.060Z,103259.22
2023-01-22T08:15:55.057Z,103269.75
2023-01-22T08:18:23.053Z,103271.69
2023-01-22T08:20:49.593Z,103266.50
2023-01-22T08:23:15.993Z,103267.41
2023-01-22T08:25:42.266Z,103267.75
2023-01-22T08:28:08.612Z,103273.06
2023-01-22T08:30:45.458Z,103274.66
2023-01-22T08:33:12.278Z,103270.22
2023-01-22T08:35:38.919Z,103277.38
2023-01-22T08:38:05.202Z,103279.41
2023-01-22T08:40:31.490Z,103282.16
2023-01-22T08:42:57.767Z,103289.19
2023-01-22T08:45:24.066Z,103285.66
2023-01-22T08:47:51.435Z,103283.19
2023-01-22T08:50:18.124Z,103287.72
2023-01-22T08:52:44.538Z,103290.47
2023-01-22T08:55:11.017Z,103282.78
2023-01-22T08:57:37.309Z,103288.09
2023-01-22T09:00:04.375Z,103287.19
2023-01-22T09:02:30.692Z,103295.25
2023-01-22T09:04:56.978Z,103281.66
2023-01-22T09:07:23.456Z,103278.28
2023-01-22T09:09:50.290Z,103286.22
2023-01-22T09:12:16.633Z,103282.00
2023-01-22T09:14:42.921Z,103283.06
2023-01-22T09:17:09.305Z,103275.34
2023-01-22T09:19:35.594Z,103277.06
2023-01-22T09:22:06.272Z,103278.78
2023-01-22T09:24:33.004Z,103277.44
2023-01-22T09:27:00.270Z,103279.81
2023-01-22T09:29:32.489Z,103279.81
2023-01-22T09:31:58.917Z,103282.78
2023-01-22T09:34:31.219Z,103274.16
2023-01-22T09:36:57.543Z,103283.81
2023-01-22T09:39:23.867Z,103278.03
2023-01-22T09:41:52.767Z,103285.41
2023-01-22T09:44:31.805Z,103292.78
2023-01-22T09:47:00.116Z,103296.06
2023-01-22T09:49:31.466Z,103298.44
2023-01-22T09:51:59.386Z,103300.38
2023-01-22T09:54:26.202Z,103301.41
2023-01-22T09:56:53.385Z,103299.03
2023-01-22T09:59:21.714Z,103292.91
2023-01-22T10:01:55.982Z,103294.63
2023-01-22T10:04:29.516Z,103293.28
2023-01-22T10:06:57.091Z,103295.50
2023-01-22T10:09:24.527Z,103292.22
2023-01-22T10:11:53.862Z,103294.19
2023-01-22T10:14:21.458Z,103295.88
2023-01-22T10:16:49.019Z,103290.66
2023-01-22T10:19:24.788Z,103294.50
2023-01-22T10:21:54.831Z,103287.94
2023-01-22T10:24:21.173Z,103289.53
2023-01-22T10:26:48.912Z,103280.03
2023-01-22T10:29:22.479Z,103281.03
2023-01-22T10:31:51.934Z,103284.66
2023-01-22T10:34:31.258Z,103287.03
2023-01-22T10:37:00.085Z,103280.91
2023-01-22T10:39:26.414Z,103283.63
2023-01-22T10:42:00.083Z,103288.03
2023-01-22T10:44:26.767Z,103283.63
2023-01-22T10:46:54.088Z,103277.63
2023-01-22T10:49:22.516Z,103283.75
2023-01-22T10:51:53.262Z,103274.31
2023-01-22T10:54:21.403Z,103276.25
2023-01-22T10:56:48.428Z,103283.63
2023-01-22T10:59:18.240Z,103274.34
2023-01-22T11:01:44.555Z,103274.56
2023-01-22T11:04:15.300Z,103265.81
2023-01-22T11:06:50.280Z,103267.63
2023-01-22T11:09:19.967Z,103265.00
2023-01-22T11:11:54.950Z,103264.69
2023-01-22T11:14:23.345Z,103255.25
2023-01-22T11:16:51.660Z,103269.44
2023-01-22T11:19:36.041Z,103269.19
2023-01-22T11:22:03.519Z,103262.28
2023-01-22T11:24:37.651Z,103262.50
2023-01-22T11:27:04.145Z,103254.00
2023-01-22T11:29:49.114Z,103262.78
2023-01-22T11:32:24.565Z,103255.19
2023-01-22T11:34:59.927Z,103253.03
2023-01-22T11:37:46.186Z,103255.97
2023-01-22T11:40:12.428Z,103245.97
2023-01-22T11:42:44.794Z,103246.66
2023-01-22T11:45:31.349Z,103234.66
2023-01-22T11:48:16.604Z,103228.53
2023-01-22T11:50:59.414Z,103236.84
2023-01-22T11:53:43.509Z,103233.59
2023-01-22T11:56:17.758Z,103235.31
2023-01-22T11:58:47.647Z,103227.28
2023-01-22T12:01:52.648Z,103232.72
2023-01-22T12:04:31.128Z,103230.81
2023-01-22T12:07:06.953Z,103228.78
2023-01-22T12:09:39.941Z,103231.47
2023-01-22T12:12:32.941Z,103235.00
2023-01-22T12:15:17.835Z,103229.78
2023-01-22T12:17:59.409Z,103227.84
2023-01-22T12:20:41.042Z,103241.00
2023-01-22T12:23:14.270Z,103233.66
2023-01-22T12:25:50.960Z,103238.97
2023-01-22T12:28:29.491Z,103240.91
2023-01-22T12:31:03.064Z,103237.38
2023-01-22T12:33:31.196Z,103234.00
2023-01-22T12:36:01.022Z,103228.97
2023-01-22T12:38:35.428Z,103224.66
2023-01-22T12:41:20.494Z,103232.38
2023-01-22T12:43:50.561Z,103237.72
2023-01-22T12:46:19.690Z,103239.09
2023-01-22T12:48:55.022Z,103223.44
2023-01-22T12:52:00.244Z,103237.25
2023-01-22T12:54:27.468Z,103234.47
2023-01-22T12:56:57.418Z,103235.34
2023-01-22T12:59:35.674Z,103238.97
2023-01-22T13:02:03.512Z,103232.16
2023-01-22T13:04:30.769Z,103240.09
2023-01-22T13:07:18.241Z,103228.66
2023-01-22T13:09:44.555Z,103226.03
2023-01-22T13:12:24.392Z,103225.25
2023-01-22T13:14:50.727Z,103229.22
2023-01-22T13:17:19.152Z,103227.31
2023-01-22T13:19:46.378Z,103229.22
2023-01-22T13:22:26.767Z,103234.34
2023-01-22T13:24:54.206Z,103234.56
2023-01-22T13:27:23.241Z,103230.94
2023-01-22T13:29:49.508Z,103239.34
2023-01-22T13:32:20.505Z,103240.03
2023-01-22T13:34:46.816Z,103234.56
2023-01-22T13:37:23.345Z,103240.25
2023-01-22T13:39:49.661Z,103244.31
2023-01-22T13:42:19.410Z,103239.44
2023-01-22T13:44:49.825Z,103241.84
2023-01-22T13:47:25.070Z,103240.03
2023-01-22T13:49:51.388Z,103239.22
2023-01-22T13:52:18.905Z,103241.03
2023-01-22T13:54:59.167Z,103238.53
2023-01-22T13:57:25.506Z,103245.66
2023-01-22T13:59:53.263Z,103244.09
2023-01-22T14:02:19.912Z,103243.97
2023-01-22T14:04:46.897Z,103247.34
2023-01-22T14:07:23.043Z,103248.84
2023-01-22T14:09:49.563Z,103250.66
2023-01-22T14:12:18.069Z,103237.59
2023-01-22T14:14:44.497Z,103248.69
2023-01-22T14:17:28.728Z,103248.81
2023-01-22T14:19:55.781Z,103245.38
2023-01-22T14:22:22.521Z,103247.41
2023-01-22T14:24:52.437Z,103255.34
2023-01-22T14:27:23.297Z,103250.34
2023-01-22T14:29:52.840Z,103253.66
2023-01-22T14:32:19.156Z,103250.94
2023-01-22T14:34:45.519Z,103250.94
2023-01-22T14:37:17.826Z,103247.53
2023-01-22T14:39:44.307Z,103254.66
2023-01-22T14:42:10.582Z,103255.81
2023-01-22T14:44:37.082Z,103255.69
2023-01-22T14:47:04.160Z,103254.19
2023-01-22T14:49:30.722Z,103259.28
2023-01-22T14:51:57.208Z,103259.09
2023-01-22T14:54:24.987Z,103266.31
2023-01-22T14:56:51.357Z,103268.22
2023-01-22T14:59:19.472Z,103262.41
2023-01-22T15:01:47.086Z,103258.88
2023-01-22T15:04:14.976Z,103263.41
2023-01-22T15:06:41.368Z,103263.09
2023-01-22T15:09:07.796Z,103260.28
2023-01-22T15:11:34.117Z,103266.59
2023-01-22T15:14:00.458Z,103269.06
2023-01-22T15:16:26.865Z,103270.50
2023-01-22T15:18:55.906Z,103273.19
2023-01-22T15:21:22.589Z,103273.78
2023-01-22T15:23:49.481Z,103280.59
2023-01-22T15:26:37.710Z,103276.66
2023-01-22T15:29:05.145Z,103277.22
2023-01-22T15:31:31.835Z,103286.97
2023-01-22T15:34:00.548Z,103281.66
2023-01-22T15:36:26.832Z,103278.03
2023-01-22T15:38:53.109Z,103283.25
2023-01-22T15:41:21.352Z,103284.06
2023-01-22T15:43:50.827Z,103274.94
2023-01-22T15:46:21.311Z,103285.97
2023-01-22T15:48:47.727Z,103293.00
2023-01-22T15:51:15.346Z,103303.00
2023-01-22T15:53:42.813Z,103299.91
2023-01-22T15:56:09.167Z,103298.53
2023-01-22T15:58:35.487Z,103300.69
2023-01-22T16:01:01.865Z,103299.97
2023-01-22T16:03:28.215Z,103305.88
2023-01-22T16:05:54.503Z,103305.03
2023-01-22T16:08:21.553Z,103316.06
2023-01-22T16:10:47.874Z,103302.19
2023-01-22T16:13:14.148Z,103300.38
2023-01-22T16:15:40.411Z,103319.53
2023-01-22T16:18:08.029Z,103309.06
2023-01-22T16:20:34.427Z,103317.00
2023-01-22T16:23:00.715Z,103319.13
2023-01-22T16:25:27.020Z,103317.97
2023-01-22T16:27:54.363Z,103313.56
2023-01-22T16:30:20.844Z,103313.56
2023-01-22T16:32:47.287Z,103306.28
2023-01-22T16:35:13.655Z,103316.09
2023-01-22T16:37:39.948Z,103310.66
2023-01-22T16:40:07.291Z,103308.03
2023-01-22T16:42:34.551Z,103322.97
2023-01-22T16:45:00.889Z,103311.72
2023-01-22T16:47:36.352Z,103313.69
2023-01-22T16:50:02.761Z,103322.03
2023-01-22T16:52:29.190Z,103329.34
2023-01-22T16:54:55.467Z,103329.03
2023-01-22T16:57:21.755Z,103336.53
2023-01-22T16:59:48.076Z,103331.19
2023-01-22T17:02:15.730Z,103332.81
2023-01-22T17:04:42.019Z,103331.38
2023-01-22T17:07:15.386Z,103334.25
2023-01-22T17:09:47.092Z,103340.72
2023-01-22T17:12:13.381Z,103338.47
2023-01-22T17:14:39.724Z,103342.22
2023-01-22T17:17:06.923Z,103333.38
2023-01-22T17:19:33.209Z,103340.41
2023-01-22T17:21:59.559Z,103334.28
2023-01-22T17:24:26.744Z,103348.94
2023-01-22T17:26:53.102Z,103345.75
2023-01-22T17:29:19.844Z,103351.16
2023-01-22T17:31:46.264Z,103353.69
2023-01-22T17:34:12.697Z,103349.13
2023-01-22T17:36:39.649Z,103352.78
2023-01-22T17:39:06.097Z,103355.16
2023-01-22T17:41:32.757Z,103362.00
2023-01-22T17:43:59.363Z,103366.28
2023-01-22T17:46:35.020Z,103360.25
2023-01-22T17:49:04.340Z,103367.09
2023-01-22T17:51:32.259Z,103367.78
2023-01-22T17:53:59.423Z,103363.38
2023-01-22T17:56:37.806Z,103357.22
2023-01-22T17:59:05.683Z,103359.25
2023-01-22T18:01:46.910Z,103367.78
2023-01-22T18:04:13.765Z,103366.88
2023-01-22T18:06:41.298Z,103370.16
2023-01-22T18:09:08.228Z,103377.31
2023-01-22T18:11:34.950Z,103378.91
2023-01-22T18:14:05.639Z,103373.47
2023-01-22T18:16:32.937Z,103370.63
2023-01-22T18:19:01.579Z,103372.09
2023-01-22T18:21:28.887Z,103376.09
2023-01-22T18:23:55.575Z,103374.13
2023-01-22T18:26:23.089Z,103373.00
2023-01-22T18:28:50.163Z,103383.25
2023-01-22T18:31:17.139Z,103382.88
2023-01-22T18:33:45.876Z,103389.22
2023-01-22T18:36:13.455Z,103385.72
2023-01-22T18:38:40.268Z,103386.41
2023-01-22T18:41:26.852Z,103394.00
2023-01-22T18:43:57.437Z,103393.00
2023-01-22T18:46:28.388Z,103387.44
2023-01-22T18:48:55.868Z,103394.56
2023-01-22T18:51:22.820Z,103396.81
2023-01-22T18:53:49.402Z,103390.72
2023-01-22T18:56:15.808Z,103386.38
2023-01-22T18:58:44.596Z,103386.19
2023-01-22T19:01:12.220Z,103380.16
2023-01-22T19:03:39.786Z,103388.00
2023-01-22T19:06:13.383Z,103385.25
2023-01-22T19:08:43.696Z,103397.50
2023-01-22T19:11:12.049Z,103399.00
2023-01-22T19:13:39.672Z,103409.78
2023-01-22T19:16:06.941Z,103402.84
2023-01-22T19:18:33.679Z,103403.78
2023-01-22T19:21:06.827Z,103406.06
2023-01-22T19:23:34.481Z,103406.63
2023-01-22T19:26:08.049Z,103405.22
2023-01-22T19:28:34.315Z,103413.84
2023-01-22T19:31:00.686Z,103411.00
2023-01-22T19:33:27.762Z,103416.34
2023-01-22T19:35:57.284Z,103426.00
2023-01-22T19:38:23.689Z,103420.66
2023-01-22T19:40:49.968Z,103429.25
2023-01-22T19:43:16.238Z,103424.03
2023-01-22T19:45:42.505Z,103423.97
2023-01-22T19:48:08.857Z,103421.22
2023-01-22T19:50:35.202Z,103431.09
2023-01-22T19:53:01.510Z,103434.03
2023-01-22T19:55:29.616Z,103441.09
2023-01-22T19:57:56.063Z,103432.47
2023-01-22T20:00:23.151Z,103438.50
2023-01-22T20:02:49.493Z,103438.50
2023-01-22T20:05:20.412Z,103441.88
2023-01-22T20:07:47.424Z,103436.66
2023-01-22T20:10:15.370Z,103437.94
2023-01-22T20:12:43.252Z,103441.53
2023-01-22T20:15:09.933Z,103442.69
2023-01-22T20:17:37.060Z,103444.59
2023-01-22T20:20:04.946Z,103447.34
2023-01-22T20:22:31.517Z,103451.88
2023-01-22T20:24:57.795Z,103455.41
2023-01-22T20:27:24.089Z,103455.63
2023-01-22T20:29:50.379Z,103458.94
2023-01-22T20:32:17.047Z,103458.81
2023-01-22T20:34:48.573Z,103461.41
2023-01-22T20:37:15.253Z,103467.09
2023-01-22T20:39:41.613Z,103469.81
2023-01-22T20:42:07.875Z,103460.63
2023-01-22T20:44:34.913Z,103450.09
2023-01-22T20:47:04.088Z,103454.63
2023-01-22T20:49:30.493Z,103461.97
2023-01-22T20:51:56.857Z,103454.59
2023-01-22T20:54:24.210Z,103458.00
2023-01-22T20:56:50.482Z,103456.88
2023-01-22T20:59:18.374Z,103459.00
2023-01-22T21:01:44.879Z,103464.03
2023-01-22T21:04:11.925Z,103465.84
2023-01-22T21:06:39.516Z,103478.66
2023-01-22T21:09:06.576Z,103475.03
2023-01-22T21:11:33.879Z,103470.47
2023-01-22T21:14:01.235Z,103475.03
2023-01-22T21:16:29.977Z,103474.09
2023-01-22T21:18:57.977Z,103475.59
2023-01-22T21:21:24.648Z,103481.44
2023-01-22T21:23:52.122Z,103478.63
2023-01-22T21:26:22.783Z,103477.47
2023-01-22T21:28:56.503Z,103480.53
2023-01-22T21:31:23.505Z,103481.44
2023-01-22T21:33:52.425Z,103481.31
2023-01-22T21:36:19.209Z,103482.47
2023-01-22T21:38:46.872Z,103483.16
2023-01-22T21:41:15.313Z,103487.44
2023-01-22T21:44:01.227Z,103495.03
2023-01-22T21:46:29.543Z,103498.31
2023-01-22T21:48:58.261Z,103497.41
2023-01-22T21:51:25.808Z,103492.31
2023-01-22T21:53:52.977Z,103491.97
2023-01-22T21:56:19.295Z,103504.44
2023-01-22T21:58:45.575Z,103494.91
2023-01-22T22:01:16.568Z,103495.16
2023-01-22T22:03:43.111Z,103486.63
2023-01-22T22:06:10.440Z,103496.25
2023-01-22T22:08:37.285Z,103495.13
2023-01-22T22:11:03.984Z,103504.88
2023-01-22T22:13:31.867Z,103502.69
2023-01-22T22:16:02.082Z,103506.00
2023-01-22T22:18:28.489Z,103502.25
2023-01-22T22:20:55.009Z,103507.22
2023-01-22T22:23:21.276Z,103495.97
2023-01-22T22:25:48.771Z,103496.09
2023-01-22T22:28:15.043Z,103494.97
2023-01-22T22:30:41.369Z,103495.97
2023-01-22T22:33:07.652Z,103503.69
2023-01-22T22:35:33.948Z,103500.81
2023-01-22T22:38:00.200Z,103499.00
2023-01-22T22:40:26.485Z,103499.25
2023-01-22T22:42:53.374Z,103498.47
2023-01-22T22:45:19.765Z,103510.81
2023-01-22T22:47:46.044Z,103507.50
2023-01-22T22:50:12.350Z,103500.41
2023-01-22T22:52:38.732Z,103505.41
2023-01-22T22:55:05.256Z,103512.72
2023-01-22T22:57:31.524Z,103509.78
2023-01-22T22:59:57.835Z,103512.00
2023-01-22T23:02:24.115Z,103513.94
2023-01-22T23:04:50.432Z,103509.28
2023-01-22T23:07:16.693Z,103522.06
2023-01-22T23:09:43.000Z,103530.66
2023-01-22T23:12:09.299Z,103522.84
2023-01-22T23:14:35.572Z,103526.25
2023-01-22T23:17:02.299Z,103534.97
2023-01-22T23:19:28.631Z,103531.34
2023-01-22T23:21:56.198Z,103537.56
2023-01-22T23:24:22.704Z,103535.88
2023-01-22T23:26:49.515Z,103537.69
2023-01-22T23:29:20.245Z,103537.69
2023-01-22T23:31:46.856Z,103538.06
2023-01-22T23:34:17.563Z,103536.38
2023-01-22T23:36:45.100Z,103531.94
2023-01-22T23:39:12.366Z,103522.44
2023-01-22T23:41:38.634Z,103527.53
2023-01-22T23:44:05.106Z,103527.53
2023-01-22T23:46:32.001Z,103528.31
2023-01-22T23:48:58.996Z,103529.31
2023-01-22T23:51:26.272Z,103540.69
2023-01-22T23:53:53.047Z,103541.59
2023-01-22T23:56:20.405Z,103544.09
2023-01-22T23:58:46.835Z,103556.31
